createdAt,value
2023-02-25T00:00:19.857Z,95384.93
2023-02-25T00:02:54.256Z,95390.14
2023-02-25T00:05:28.277Z,95389.16
2023-02-25T00:08:02.225Z,95384.92
2023-02-25T00:10:35.354Z,95373.56
2023-02-25T00:13:18.063Z,95364.64
2023-02-25T00:15:50.976Z,95353.88
2023-02-25T00:18:26.577Z,95350.15
2023-02-25T00:20:59.736Z,95348.73
2023-02-25T00:23:33.120Z,95347.64
2023-02-25T00:26:07.205Z,95342.67
2023-02-25T00:28:40.915Z,95336.16
2023-02-25T00:31:15.831Z,95327.30
2023-02-25T00:33:50.622Z,95329.95
2023-02-25T00:36:25.509Z,95327.30
2023-02-25T00:38:59.653Z,95332.45
2023-02-25T00:41:33.392Z,95332.61
2023-02-25T00:44:06.388Z,95332.76
2023-02-25T00:46:38.876Z,95325.76
2023-02-25T00:49:16.737Z,95324.32
2023-02-25T00:51:54.191Z,95327.08
2023-02-25T00:54:27.329Z,95323.27
2023-02-25T00:57:00.315Z,95312.21
2023-02-25T00:59:34.032Z,95316.79
2023-02-25T01:02:06.784Z,95323.14
2023-02-25T01:04:39.760Z,95324.27
2023-02-25T01:07:13.341Z,95316.49
2023-02-25T01:09:45.868Z,95314.85
2023-02-25T01:12:18.845Z,95314.61
2023-02-25T01:14:52.042Z,95301.29
2023-02-25T01:17:24.791Z,95281.28
2023-02-25T01:19:57.955Z,95289.67
2023-02-25T01:22:31.809Z,95283.76
2023-02-25T01:25:06.567Z,95284.64
2023-02-25T01:27:43.764Z,95280.20
2023-02-25T01:30:18.974Z,95267.19
2023-02-25T01:32:51.633Z,95264.48
2023-02-25T01:35:24.409Z,95265.60
2023-02-25T01:37:58.181Z,95265.39
2023-02-25T01:40:32.425Z,95273.71
2023-02-25T01:43:08.102Z,95266.86
2023-02-25T01:45:44.459Z,95259.67
2023-02-25T01:48:20.252Z,95253.17
2023-02-25T01:50:56.063Z,95246.08
2023-02-25T01:53:32.602Z,95248.79
2023-02-25T01:56:06.802Z,95250.41
2023-02-25T01:58:40.183Z,95248.09
2023-02-25T02:01:16.836Z,95242.44
2023-02-25T02:03:52.142Z,95246.86
2023-02-25T02:06:30.554Z,95249.20
2023-02-25T02:09:04.226Z,95253.86
2023-02-25T02:11:35.377Z,95247.75
2023-02-25T02:14:11.852Z,95256.65
2023-02-25T02:17:15.562Z,95261.11
2023-02-25T02:20:10.332Z,95261.88
2023-02-25T02:22:51.315Z,95261.55
2023-02-25T02:25:51.759Z,95262.77
2023-02-25T02:28:54.694Z,95259.47
2023-02-25T02:31:38.705Z,95259.65
2023-02-25T02:34:17.064Z,95253.52
2023-02-25T02:37:01.501Z,95255.94
2023-02-25T02:39:45.323Z,95251.48
2023-02-25T02:42:27.821Z,95252.08
2023-02-25T02:45:04.591Z,95257.13
2023-02-25T02:47:39.991Z,95261.86
2023-02-25T02:50:17.557Z,95265.64
2023-02-25T02:52:54.207Z,95267.42
2023-02-25T02:55:33.130Z,95277.64
2023-02-25T02:58:09.834Z,95282.77
2023-02-25T03:00:45.978Z,95283.77
2023-02-25T03:03:23.156Z,95278.41
2023-02-25T03:05:57.500Z,95278.16
2023-02-25T03:08:34.681Z,95276.92
2023-02-25T03:11:09.613Z,95273.80
2023-02-25T03:13:43.069Z,95268.89
2023-02-25T03:16:21.811Z,95266.47
2023-02-25T03:18:59.617Z,95264.04
2023-02-25T03:21:39.016Z,95255.64
2023-02-25T03:24:22.596Z,95259.34
2023-02-25T03:26:56.769Z,95261.57
2023-02-25T03:29:30.275Z,95271.39
2023-02-25T03:32:07.900Z,95275.34
2023-02-25T03:34:44.359Z,95277.41
2023-02-25T03:37:25.757Z,95275.35
2023-02-25T03:40:03.486Z,95271.19
2023-02-25T03:42:37.598Z,95274.38
2023-02-25T03:45:13.688Z,95269.86
2023-02-25T03:47:47.408Z,95269.38
2023-02-25T03:50:21.863Z,95269.17
2023-02-25T03:52:58.884Z,95272.25
2023-02-25T03:56:12.824Z,95269.94
2023-02-25T03:58:48.952Z,95269.39
2023-02-25T04:01:28.460Z,95269.67
2023-02-25T04:04:00.998Z,95264.15
2023-02-25T04:06:34.255Z,95264.61
2023-02-25T04:09:08.167Z,95264.17
2023-02-25T04:11:41.164Z,95270.15
2023-02-25T04:14:16.037Z,95268.45
2023-02-25T04:16:48.539Z,95271.70
2023-02-25T04:19:21.406Z,95280.48
2023-02-25T04:21:56.071Z,95289.98
2023-02-25T04:24:31.327Z,95292.40
2023-02-25T04:27:03.823Z,95289.88
2023-02-25T04:29:38.608Z,95293.31
2023-02-25T04:32:13.508Z,95298.77
2023-02-25T04:34:46.304Z,95307.22
2023-02-25T04:37:18.879Z,95314.36
2023-02-25T04:39:51.536Z,95324.40
2023-02-25T04:42:26.796Z,95315.58
2023-02-25T04:45:00.194Z,95317.45
2023-02-25T04:47:32.678Z,95322.36
2023-02-25T04:50:05.958Z,95317.70
2023-02-25T04:52:38.618Z,95310.23
2023-02-25T04:55:15.378Z,95312.27
2023-02-25T04:57:50.023Z,95303.45
2023-02-25T05:00:24.699Z,95316.63
2023-02-25T05:02:58.878Z,95308.85
2023-02-25T05:05:31.523Z,95310.73
2023-02-25T05:08:04.666Z,95311.70
2023-02-25T05:10:37.444Z,95304.31
2023-02-25T05:13:10.318Z,95300.42
2023-02-25T05:15:43.049Z,95301.30
2023-02-25T05:18:16.150Z,95300.95
2023-02-25T05:20:50.572Z,95297.12
2023-02-25T05:23:23.339Z,95299.30
2023-02-25T05:25:58.430Z,95296.31
2023-02-25T05:28:31.083Z,95293.63
2023-02-25T05:31:06.187Z,95293.63
2023-02-25T05:33:41.610Z,95299.05
2023-02-25T05:36:20.083Z,95301.98
2023-02-25T05:38:54.654Z,95301.35
2023-02-25T05:41:28.126Z,95312.44
2023-02-25T05:44:01.529Z,95319.71
2023-02-25T05:46:33.315Z,95324.23
2023-02-25T05:49:06.147Z,95322.88
2023-02-25T05:51:38.872Z,95329.52
2023-02-25T05:54:11.431Z,95336.19
2023-02-25T05:56:45.852Z,95336.60
2023-02-25T05:59:19.227Z,95336.35
2023-02-25T06:01:54.487Z,95339.95
2023-02-25T06:04:28.675Z,95342.48
2023-02-25T06:07:03.946Z,95346.55
2023-02-25T06:09:36.866Z,95349.20
2023-02-25T06:12:10.283Z,95345.30
2023-02-25T06:14:43.419Z,95349.73
2023-02-25T06:17:15.993Z,95356.51
2023-02-25T06:19:48.887Z,95355.50
2023-02-25T06:22:21.998Z,95355.77
2023-02-25T06:24:57.594Z,95357.25
2023-02-25T06:27:31.867Z,95358.55
2023-02-25T06:30:04.690Z,95356.33
2023-02-25T06:32:37.684Z,95352.54
2023-02-25T06:35:11.869Z,95357.45
2023-02-25T06:37:48.247Z,95358.76
2023-02-25T06:40:21.810Z,95359.41
2023-02-25T06:42:56.408Z,95358.89
2023-02-25T06:45:29.798Z,95360.58
2023-02-25T06:48:02.681Z,95359.46
2023-02-25T06:50:35.597Z,95361.60
2023-02-25T06:53:09.884Z,95365.37
2023-02-25T06:55:43.887Z,95365.30
2023-02-25T06:58:18.341Z,95368.11
2023-02-25T07:00:54.218Z,95365.33
2023-02-25T07:03:28.929Z,95361.08
2023-02-25T07:06:01.748Z,95356.62
2023-02-25T07:08:37.203Z,95357.08
2023-02-25T07:11:29.643Z,95354.07
2023-02-25T07:14:02.513Z,95352.39
2023-02-25T07:16:36.728Z,95355.09
2023-02-25T07:19:10.092Z,95352.45
2023-02-25T07:21:42.925Z,95354.46
2023-02-25T07:24:19.345Z,95355.17
2023-02-25T07:26:52.607Z,95350.94
2023-02-25T07:29:28.205Z,95345.59
2023-02-25T07:32:02.012Z,95344.64
2023-02-25T07:34:32.997Z,95345.05
2023-02-25T07:37:06.165Z,95346.73
2023-02-25T07:39:45.719Z,95354.03
2023-02-25T07:42:19.964Z,95360.21
2023-02-25T07:44:54.096Z,95358.36
2023-02-25T07:47:26.967Z,95355.79
2023-02-25T07:49:59.909Z,95355.64
2023-02-25T07:52:33.186Z,95359.50
2023-02-25T07:55:06.427Z,95361.91
2023-02-25T07:57:39.469Z,95361.08
2023-02-25T08:00:16.512Z,95365.05
2023-02-25T08:02:49.216Z,95367.17
2023-02-25T08:05:22.460Z,95364.88
2023-02-25T08:07:55.431Z,95362.31
2023-02-25T08:10:28.297Z,95364.10
2023-02-25T08:13:01.532Z,95357.53
2023-02-25T08:15:37.219Z,95358.68
2023-02-25T08:18:10.263Z,95356.47
2023-02-25T08:20:47.052Z,95349.82
2023-02-25T08:23:20.144Z,95349.78
2023-02-25T08:25:56.901Z,95345.23
2023-02-25T08:28:34.878Z,95346.44
2023-02-25T08:31:12.553Z,95336.28
2023-02-25T08:33:49.861Z,95340.56
2023-02-25T08:36:27.133Z,95342.24
2023-02-25T08:39:00.696Z,95341.95
2023-02-25T08:41:34.094Z,95340.05
2023-02-25T08:44:07.270Z,95346.39
2023-02-25T08:46:41.279Z,95346.48
2023-02-25T08:49:15.101Z,95348.63
2023-02-25T08:51:53.419Z,95354.29
2023-02-25T08:54:26.238Z,95360.07
2023-02-25T08:57:00.998Z,95360.38
2023-02-25T08:59:36.233Z,95362.83
2023-02-25T09:02:15.458Z,95361.95
2023-02-25T09:04:48.501Z,95359.71
2023-02-25T09:07:22.507Z,95355.34
2023-02-25T09:09:55.544Z,95358.40
2023-02-25T09:12:28.446Z,95362.13
2023-02-25T09:15:01.397Z,95361.36
2023-02-25T09:17:34.566Z,95365.32
2023-02-25T09:20:09.868Z,95366.45
2023-02-25T09:22:43.776Z,95367.20
2023-02-25T09:25:14.609Z,95364.88
2023-02-25T09:27:47.268Z,95367.61
2023-02-25T09:30:22.008Z,95366.86
2023-02-25T09:32:55.021Z,95366.30
2023-02-25T09:35:30.556Z,95366.98
2023-02-25T09:38:03.192Z,95373.64
2023-02-25T09:40:36.539Z,95372.43
2023-02-25T09:43:22.083Z,95373.85
2023-02-25T09:46:11.479Z,95378.00
2023-02-25T09:48:55.010Z,95373.85
2023-02-25T09:51:34.596Z,95371.38
2023-02-25T09:54:17.990Z,95365.53
2023-02-25T09:56:51.623Z,95362.16
2023-02-25T09:59:29.564Z,95364.00
2023-02-25T10:02:15.163Z,95362.98
2023-02-25T10:05:01.904Z,95361.16
2023-02-25T10:07:57.032Z,95361.96
2023-02-25T10:10:38.915Z,95361.07
2023-02-25T10:13:26.942Z,95363.88
2023-02-25T10:16:11.951Z,95362.52
2023-02-25T10:19:01.947Z,95359.96
2023-02-25T10:21:56.310Z,95355.86
2023-02-25T10:24:32.210Z,95354.09
2023-02-25T10:27:12.578Z,95351.86
2023-02-25T10:29:50.933Z,95345.27
2023-02-25T10:32:28.209Z,95346.31
2023-02-25T10:35:13.951Z,95347.81
2023-02-25T10:37:47.314Z,95339.04
2023-02-25T10:40:22.178Z,95339.72
2023-02-25T10:42:56.444Z,95337.36
2023-02-25T10:45:32.561Z,95335.42
2023-02-25T10:48:15.540Z,95331.92
2023-02-25T10:51:07.445Z,95330.06
2023-02-25T10:53:40.911Z,95325.16
2023-02-25T10:56:14.962Z,95326.27
2023-02-25T10:59:01.115Z,95333.98
2023-02-25T11:01:40.898Z,95324.70
2023-02-25T11:04:17.182Z,95324.00
2023-02-25T11:06:50.434Z,95325.56
2023-02-25T11:09:40.637Z,95320.36
2023-02-25T11:12:21.628Z,95318.27
2023-02-25T11:14:55.354Z,95311.13
2023-02-25T11:17:30.891Z,95318.10
2023-02-25T11:20:07.123Z,95331.52
2023-02-25T11:22:45.220Z,95337.14
2023-02-25T11:25:22.564Z,95343.30
2023-02-25T11:27:59.083Z,95353.77
2023-02-25T11:30:36.024Z,95365.93
2023-02-25T11:33:20.785Z,95371.75
2023-02-25T11:36:00.677Z,95368.70
2023-02-25T11:38:37.045Z,95366.47
2023-02-25T11:41:20.546Z,95364.67
2023-02-25T11:43:54.615Z,95353.92
2023-02-25T11:46:33.044Z,95343.67
2023-02-25T11:49:15.164Z,95351.76
2023-02-25T11:51:54.240Z,95351.34
2023-02-25T11:54:37.219Z,95346.30
2023-02-25T11:57:16.293Z,95347.89
2023-02-25T12:00:04.819Z,95350.31
2023-02-25T12:02:57.958Z,95350.16
2023-02-25T12:05:52.370Z,95395.77
2023-02-25T12:08:52.629Z,95389.27
2023-02-25T12:12:03.013Z,95378.90
2023-02-25T12:15:12.488Z,95381.42
2023-02-25T12:18:26.467Z,95385.57
2023-02-25T12:22:05.946Z,95379.02
2023-02-25T12:25:06.511Z,95385.96
2023-02-25T12:28:21.740Z,95387.66
2023-02-25T12:31:39.904Z,95391.73
2023-02-25T12:34:27.477Z,95398.27
2023-02-25T12:37:20.858Z,95397.27
2023-02-25T12:40:05.336Z,95399.91
2023-02-25T12:43:00.968Z,95398.63
2023-02-25T12:45:58.685Z,95401.21
2023-02-25T12:49:01.250Z,95399.42
2023-02-25T12:51:57.226Z,95390.19
2023-02-25T12:54:49.574Z,95392.48
2023-02-25T12:57:40.631Z,95394.41
2023-02-25T13:00:26.360Z,95398.56
2023-02-25T13:03:21.550Z,95393.95
2023-02-25T13:06:16.927Z,95402.12
2023-02-25T13:09:03.944Z,95411.06
2023-02-25T13:12:09.937Z,95410.27
2023-02-25T13:14:51.248Z,95411.69
2023-02-25T13:17:37.376Z,95424.18
2023-02-25T13:20:49.051Z,95441.56
2023-02-25T13:23:46.093Z,95444.85
2023-02-25T13:26:39.534Z,95451.48
2023-02-25T13:29:28.906Z,95441.27
2023-02-25T13:32:27.303Z,95441.26
2023-02-25T13:35:18.319Z,95436.05
2023-02-25T13:37:58.651Z,95433.60
2023-02-25T13:40:49.272Z,95433.42
2023-02-25T13:43:45.691Z,95432.52
2023-02-25T13:46:38.550Z,95432.21
2023-02-25T13:49:34.799Z,95432.76
2023-02-25T13:52:19.370Z,95437.70
2023-02-25T13:55:34.681Z,95440.49
2023-02-25T13:58:46.112Z,95447.27
2023-02-25T14:01:37.263Z,95449.03
2023-02-25T14:04:41.329Z,95452.08
2023-02-25T14:07:32.779Z,95457.59
2023-02-25T14:10:26.981Z,95467.09
2023-02-25T14:13:13.231Z,95469.11
2023-02-25T14:16:00.721Z,95476.63
2023-02-25T14:19:09.509Z,95478.89
2023-02-25T14:22:20.502Z,95482.39
2023-02-25T14:25:08.743Z,95482.35
2023-02-25T14:27:52.643Z,95484.77
2023-02-25T14:30:31.627Z,95485.44
2023-02-25T14:33:22.711Z,95487.64
2023-02-25T14:36:09.312Z,95491.64
2023-02-25T14:39:02.881Z,95492.01
2023-02-25T14:41:43.539Z,95493.89
2023-02-25T14:44:21.183Z,95492.50
2023-02-25T14:47:01.499Z,95498.74
2023-02-25T14:49:41.691Z,95504.29
2023-02-25T14:52:38.596Z,95508.19
2023-02-25T14:55:40.130Z,95509.23
2023-02-25T14:58:34.549Z,95508.95
2023-02-25T15:01:09.322Z,95516.53
2023-02-25T15:04:00.741Z,95516.12
2023-02-25T15:07:08.407Z,95528.04
2023-02-25T15:10:19.416Z,95531.11
2023-02-25T15:13:17.222Z,95540.64
2023-02-25T15:16:31.647Z,95545.14
2023-02-25T15:19:36.577Z,95554.05
2023-02-25T15:22:30.886Z,95557.38
2023-02-25T15:25:33.724Z,95558.27
2023-02-25T15:28:27.146Z,95561.83
2023-02-25T15:31:33.473Z,95568.09
2023-02-25T15:34:40.020Z,95567.73
2023-02-25T15:37:29.816Z,95572.65
2023-02-25T15:40:29.115Z,95574.48
2023-02-25T15:43:25.790Z,95585.77
2023-02-25T15:49:36.025Z,95595.45
2023-02-25T15:52:13.177Z,95605.46
2023-02-25T15:54:56.359Z,95616.26
2023-02-25T15:57:42.726Z,95622.56
2023-02-25T16:00:46.508Z,95632.02
2023-02-25T16:03:35.695Z,95636.23
2023-02-25T16:06:16.290Z,95642.20
2023-02-25T16:08:57.004Z,95647.45
2023-02-25T16:11:40.239Z,95652.58
2023-02-25T16:14:21.466Z,95655.23
2023-02-25T16:16:58.919Z,95652.56
2023-02-25T16:19:36.459Z,95659.05
2023-02-25T16:22:16.742Z,95663.23
2023-02-25T16:24:53.391Z,95662.23
2023-02-25T16:27:45.437Z,95661.05
2023-02-25T16:30:25.889Z,95665.43
2023-02-25T16:33:11.369Z,95665.64
2023-02-25T16:35:57.662Z,95668.51
2023-02-25T16:38:45.341Z,95671.55
2023-02-25T16:41:22.368Z,95671.89
2023-02-25T16:44:01.879Z,95680.82
2023-02-25T16:46:39.887Z,95691.55
2023-02-25T16:49:22.923Z,95695.70
2023-02-25T16:51:58.678Z,95699.59
2023-02-25T16:54:36.692Z,95703.16
2023-02-25T16:57:20.827Z,95707.46
2023-02-25T16:59:53.455Z,95713.14
2023-02-25T17:02:31.641Z,95721.34
2023-02-25T17:05:08.265Z,95727.26
2023-02-25T17:07:42.249Z,95726.29
2023-02-25T17:10:31.128Z,95730.70
2023-02-25T17:13:08.375Z,95737.15
2023-02-25T17:15:43.048Z,95742.15
2023-02-25T17:18:21.387Z,95750.06
2023-02-25T17:21:01.846Z,95753.02
2023-02-25T17:23:44.787Z,95762.55
2023-02-25T17:26:18.634Z,95760.42
2023-02-25T17:28:55.775Z,95762.81
2023-02-25T17:31:30.903Z,95761.38
2023-02-25T17:34:05.840Z,95761.69
2023-02-25T17:36:43.007Z,95762.70
2023-02-25T17:39:20.894Z,95766.41
2023-02-25T17:41:55.084Z,95768.83
2023-02-25T17:44:47.593Z,95772.20
2023-02-25T17:47:28.023Z,95776.96
2023-02-25T17:50:17.078Z,95780.49
2023-02-25T17:52:52.489Z,95784.52
2023-02-25T17:55:37.516Z,95786.73
2023-02-25T17:58:23.222Z,95793.83
2023-02-25T18:01:06.240Z,95798.76
2023-02-25T18:03:48.948Z,95802.61
2023-02-25T18:06:35.656Z,95804.98
2023-02-25T18:09:29.929Z,95804.30
2023-02-25T18:12:09.555Z,95805.54
2023-02-25T18:14:46.139Z,95805.12
2023-02-25T18:17:26.227Z,95811.45
2023-02-25T18:20:00.853Z,95817.98
2023-02-25T18:22:40.599Z,95819.08
2023-02-25T18:25:40.205Z,95825.66
2023-02-25T18:28:22.283Z,95827.67
2023-02-25T18:31:04.122Z,95829.37
2023-02-25T18:33:39.482Z,95828.96
2023-02-25T18:36:26.600Z,95826.30
2023-02-25T18:39:06.144Z,95829.66
2023-02-25T18:41:41.688Z,95834.45
2023-02-25T18:44:18.458Z,95834.11
2023-02-25T18:46:55.785Z,95835.45
2023-02-25T18:49:32.549Z,95840.56
2023-02-25T18:52:07.252Z,95845.19
2023-02-25T18:54:41.110Z,95847.01
2023-02-25T18:57:23.335Z,95850.55
2023-02-25T18:59:58.493Z,95854.21
2023-02-25T19:02:37.589Z,95854.64
2023-02-25T19:05:11.285Z,95860.29
2023-02-25T19:07:45.080Z,95857.42
2023-02-25T19:10:23.932Z,95861.36
2023-02-25T19:13:07.015Z,95860.77
2023-02-25T19:15:41.847Z,95864.34
2023-02-25T19:18:18.712Z,95868.30
2023-02-25T19:20:52.741Z,95867.23
2023-02-25T19:23:23.725Z,95873.89
2023-02-25T19:26:01.054Z,95873.55
2023-02-25T19:28:37.312Z,95879.97
2023-02-25T19:31:19.070Z,95884.17
2023-02-25T19:33:58.074Z,95885.97
2023-02-25T19:36:34.292Z,95890.71
2023-02-25T19:39:13.621Z,95889.89
2023-02-25T19:41:49.531Z,95888.21
2023-02-25T19:44:26.297Z,95890.51
2023-02-25T19:47:04.511Z,95894.75
2023-02-25T19:49:37.157Z,95896.52
2023-02-25T19:52:10.343Z,95902.33
2023-02-25T19:54:43.382Z,95902.05
2023-02-25T19:57:16.985Z,95905.61
2023-02-25T19:59:47.733Z,95905.19
2023-02-25T20:02:21.411Z,95908.13
2023-02-25T20:04:59.275Z,95914.25
2023-02-25T20:07:33.485Z,95912.22
2023-02-25T20:10:06.962Z,95916.20
2023-02-25T20:12:40.376Z,95919.14
2023-02-25T20:15:15.239Z,95916.52
2023-02-25T20:17:49.739Z,95922.21
2023-02-25T20:20:24.570Z,95921.18
2023-02-25T20:22:57.901Z,95920.17
2023-02-25T20:25:33.006Z,95919.11
2023-02-25T20:28:07.352Z,95921.08
2023-02-25T20:30:42.637Z,95923.45
2023-02-25T20:33:18.771Z,95925.58
2023-02-25T20:35:52.243Z,95923.13
2023-02-25T20:38:34.100Z,95930.20
2023-02-25T20:41:08.171Z,95938.40
2023-02-25T20:43:41.550Z,95944.23
2023-02-25T20:46:22.726Z,95947.77
2023-02-25T20:48:56.453Z,95955.71
2023-02-25T20:51:30.110Z,95967.33
2023-02-25T20:54:01.337Z,95973.41
2023-02-25T20:56:35.024Z,95978.33
2023-02-25T20:59:08.035Z,95984.72
2023-02-25T21:01:40.995Z,95987.37
2023-02-25T21:04:15.707Z,95989.01
2023-02-25T21:06:50.097Z,95992.67
2023-02-25T21:09:22.756Z,95996.80
2023-02-25T21:12:00.717Z,95994.27
2023-02-25T21:14:33.867Z,95993.94
2023-02-25T21:17:09.831Z,95995.77
2023-02-25T21:19:42.956Z,95999.05
2023-02-25T21:22:15.758Z,96002.96
2023-02-25T21:24:48.751Z,96001.27
2023-02-25T21:27:23.007Z,96000.70
2023-02-25T21:29:58.656Z,96000.59
2023-02-25T21:32:31.306Z,96002.36
2023-02-25T21:35:04.455Z,96003.32
2023-02-25T21:37:38.747Z,96003.83
2023-02-25T21:40:15.068Z,96005.61
2023-02-25T21:42:47.604Z,96007.42
2023-02-25T21:45:20.615Z,96014.88
2023-02-25T21:47:55.868Z,96018.15
2023-02-25T21:50:29.397Z,96022.32
2023-02-25T21:53:02.217Z,96026.55
2023-02-25T21:55:35.537Z,96035.70
2023-02-25T21:58:08.598Z,96034.84
2023-02-25T22:00:42.926Z,96040.07
2023-02-25T22:03:15.885Z,96043.48
2023-02-25T22:05:50.181Z,96046.05
2023-02-25T22:08:22.749Z,96052.69
2023-02-25T22:10:55.709Z,96056.23
2023-02-25T22:13:33.658Z,96061.30
2023-02-25T22:16:07.321Z,96060.98
2023-02-25T22:18:38.068Z,96065.68
2023-02-25T22:21:16.500Z,96068.44
2023-02-25T22:23:50.212Z,96073.24
2023-02-25T22:26:25.684Z,96079.81
2023-02-25T22:29:00.881Z,96082.19
2023-02-25T22:31:34.622Z,96079.50
2023-02-25T22:34:08.502Z,96081.61
2023-02-25T22:36:41.395Z,96080.40
2023-02-25T22:39:14.243Z,96086.20
2023-02-25T22:41:47.034Z,96090.29
2023-02-25T22:44:19.924Z,96093.67
2023-02-25T22:46:52.728Z,96097.09
2023-02-25T22:49:25.914Z,96101.66
2023-02-25T22:51:58.877Z,96104.66
2023-02-25T22:54:32.783Z,96105.95
2023-02-25T22:57:05.726Z,96111.17
2023-02-25T22:59:38.309Z,96113.59
2023-02-25T23:02:11.012Z,96116.19
2023-02-25T23:04:44.297Z,96119.45
2023-02-25T23:07:17.745Z,96127.45
2023-02-25T23:09:50.643Z,96132.37
2023-02-25T23:12:23.694Z,96138.05
2023-02-25T23:14:57.342Z,96139.39
2023-02-25T23:17:30.114Z,96146.92
2023-02-25T23:20:02.915Z,96153.69
2023-02-25T23:22:36.061Z,96157.77
2023-02-25T23:25:10.473Z,96158.40
2023-02-25T23:27:43.872Z,96156.60
2023-02-25T23:30:17.710Z,96160.70
2023-02-25T23:32:51.072Z,96162.94
2023-02-25T23:35:24.321Z,96165.67
2023-02-25T23:37:57.112Z,96171.36
2023-02-25T23:40:29.831Z,96181.27
2023-02-25T23:43:03.071Z,96188.05
2023-02-25T23:45:35.545Z,96194.88
2023-02-25T23:48:09.143Z,96205.05
2023-02-25T23:50:39.838Z,96208.28
2023-02-25T23:53:12.928Z,96209.73
2023-02-25T23:55:45.549Z,96215.77
2023-02-25T23:58:18.334Z,96216.28
